sensor_id;sensor_type;location;lat;lon;timestamp;temperature;humidity
38398;DHT22;24179;52.094;4.408;2022-10-03T16:32:35;16.30;99.90
38398;DHT22;24179;52.094;4.408;2022-10-03T16:38:26;15.80;99.90
38398;DHT22;24179;52.094;4.408;2022-10-03T16:41:30;15.80;99.90
38398;DHT22;24179;52.094;4.408;2022-10-03T16:47:34;15.70;99.90
38398;DHT22;24179;52.094;4.408;2022-10-03T16:50:36;15.60;99.90
38398;DHT22;24179;52.094;4.408;2022-10-03T16:53:40;15.50;99.90
38398;DHT22;24179;52.094;4.408;2022-10-03T16:56:46;15.40;99.90
38398;DHT22;24179;52.094;4.408;2022-10-03T16:59:50;15.30;99.90
38398;DHT22;24179;52.094;4.408;2022-10-03T17:02:54;15.20;99.90
38398;DHT22;24179;52.094;4.408;2022-10-03T17:05:55;15.10;99.90
38398;DHT22;24179;52.094;4.408;2022-10-03T17:09:00;14.90;99.90
38398;DHT22;24179;52.094;4.408;2022-10-03T17:12:02;14.70;99.90
38398;DHT22;24179;52.094;4.408;2022-10-03T17:15:04;14.60;99.90
38398;DHT22;24179;52.094;4.408;2022-10-03T17:18:08;14.40;99.90
38398;DHT22;24179;52.094;4.408;2022-10-03T17:21:24;14.30;99.90
38398;DHT22;24179;52.094;4.408;2022-10-03T17:27:28;14.10;99.90
38398;DHT22;24179;52.094;4.408;2022-10-03T17:33:42;14.00;99.90
38398;DHT22;24179;52.094;4.408;2022-10-03T17:43:15;13.80;99.90
38398;DHT22;24179;52.094;4.408;2022-10-03T17:46:22;13.70;99.90
38398;DHT22;24179;52.094;4.408;2022-10-03T17:49:30;13.60;99.90
38398;DHT22;24179;52.094;4.408;2022-10-03T17:52:38;13.50;99.90
38398;DHT22;24179;52.094;4.408;2022-10-03T17:55:39;13.40;99.90
38398;DHT22;24179;52.094;4.408;2022-10-03T17:58:48;13.40;99.90
38398;DHT22;24179;52.094;4.408;2022-10-03T18:01:50;13.30;99.90
38398;DHT22;24179;52.094;4.408;2022-10-03T18:04:54;13.30;99.90
38398;DHT22;24179;52.094;4.408;2022-10-03T18:08:00;13.20;99.90
38398;DHT22;24179;52.094;4.408;2022-10-03T18:11:01;13.20;99.90
38398;DHT22;24179;52.094;4.408;2022-10-03T18:14:26;13.10;99.90
38398;DHT22;24179;52.094;4.408;2022-10-03T18:17:37;13.00;99.90
38398;DHT22;24179;52.094;4.408;2022-10-03T18:27:02;12.90;99.90
38398;DHT22;24179;52.094;4.408;2022-10-03T18:30:15;12.80;99.90
38398;DHT22;24179;52.094;4.408;2022-10-03T18:33:19;12.80;99.90
38398;DHT22;24179;52.094;4.408;2022-10-03T18:36:28;12.90;99.90
38398;DHT22;24179;52.094;4.408;2022-10-03T18:39:30;12.90;99.90
38398;DHT22;24179;52.094;4.408;2022-10-03T18:42:32;12.90;99.90
38398;DHT22;24179;52.094;4.408;2022-10-03T18:45:36;13.00;99.90
38398;DHT22;24179;52.094;4.408;2022-10-03T18:48:56;13.00;99.90
38398;DHT22;24179;52.094;4.408;2022-10-03T18:52:03;13.10;99.90
38398;DHT22;24179;52.094;4.408;2022-10-03T18:55:13;13.10;99.90
38398;DHT22;24179;52.094;4.408;2022-10-03T18:58:19;13.10;99.90
38398;DHT22;24179;52.094;4.408;2022-10-03T19:01:23;13.10;99.90
38398;DHT22;24179;52.094;4.408;2022-10-03T19:04:42;13.20;99.90
38398;DHT22;24179;52.094;4.408;2022-10-03T19:07:50;13.20;99.90
38398;DHT22;24179;52.094;4.408;2022-10-03T19:10:52;13.20;99.90
38398;DHT22;24179;52.094;4.408;2022-10-03T19:13:59;13.20;99.90
38398;DHT22;24179;52.094;4.408;2022-10-03T19:20:25;13.20;99.90
38398;DHT22;24179;52.094;4.408;2022-10-03T19:23:34;13.20;99.90
38398;DHT22;24179;52.094;4.408;2022-10-03T19:26:35;13.20;99.90
38398;DHT22;24179;52.094;4.408;2022-10-03T19:29:44;13.20;99.90
38398;DHT22;24179;52.094;4.408;2022-10-03T19:35:47;13.20;99.90
38398;DHT22;24179;52.094;4.408;2022-10-03T19:38:50;13.10;99.90
38398;DHT22;24179;52.094;4.408;2022-10-03T19:41:54;13.10;99.90
38398;DHT22;24179;52.094;4.408;2022-10-03T19:44:56;13.10;99.90
38398;DHT22;24179;52.094;4.408;2022-10-03T19:48:03;13.10;99.90
38398;DHT22;24179;52.094;4.408;2022-10-03T19:51:13;13.10;99.90
38398;DHT22;24179;52.094;4.408;2022-10-03T19:54:32;13.10;99.90
38398;DHT22;24179;52.094;4.408;2022-10-03T20:00:37;13.00;99.90
38398;DHT22;24179;52.094;4.408;2022-10-03T20:03:41;12.90;99.90
38398;DHT22;24179;52.094;4.408;2022-10-03T20:06:45;12.90;99.90
38398;DHT22;24179;52.094;4.408;2022-10-03T20:09:54;12.90;99.90
38398;DHT22;24179;52.094;4.408;2022-10-03T20:12:55;12.90;99.90
38398;DHT22;24179;52.094;4.408;2022-10-03T20:16:02;12.90;99.90
38398;DHT22;24179;52.094;4.408;2022-10-03T20:19:45;12.90;99.90
38398;DHT22;24179;52.094;4.408;2022-10-03T20:22:31;12.80;99.90
38398;DHT22;24179;52.094;4.408;2022-10-03T20:25:37;12.80;99.90
38398;DHT22;24179;52.094;4.408;2022-10-03T20:31:59;12.60;99.90
38398;DHT22;24179;52.094;4.408;2022-10-03T20:35:00;12.50;99.90
38398;DHT22;24179;52.094;4.408;2022-10-03T20:38:05;12.40;99.90
38398;DHT22;24179;52.094;4.408;2022-10-03T20:44:16;12.20;99.90
38398;DHT22;24179;52.094;4.408;2022-10-03T20:50:42;12.10;99.90
38398;DHT22;24179;52.094;4.408;2022-10-03T20:53:44;12.10;99.90
38398;DHT22;24179;52.094;4.408;2022-10-03T20:56:49;12.20;99.90
38398;DHT22;24179;52.094;4.408;2022-10-03T20:59:52;12.20;99.90
38398;DHT22;24179;52.094;4.408;2022-10-03T21:03:07;12.30;99.90
38398;DHT22;24179;52.094;4.408;2022-10-03T21:06:16;12.30;99.90
38398;DHT22;24179;52.094;4.408;2022-10-03T21:09:18;12.30;99.90
38398;DHT22;24179;52.094;4.408;2022-10-03T21:12:21;12.30;99.90
38398;DHT22;24179;52.094;4.408;2022-10-03T21:18:25;12.30;99.90
38398;DHT22;24179;52.094;4.408;2022-10-03T21:21:36;12.30;99.90
38398;DHT22;24179;52.094;4.408;2022-10-03T21:27:49;12.30;99.90
38398;DHT22;24179;52.094;4.408;2022-10-03T21:34:00;12.30;99.90
38398;DHT22;24179;52.094;4.408;2022-10-03T21:37:09;12.30;99.90
38398;DHT22;24179;52.094;4.408;2022-10-03T21:40:18;12.40;99.90
38398;DHT22;24179;52.094;4.408;2022-10-03T21:49:49;12.20;99.90
38398;DHT22;24179;52.094;4.408;2022-10-03T21:56:07;12.20;99.90
38398;DHT22;24179;52.094;4.408;2022-10-03T21:59:16;12.20;99.90
38398;DHT22;24179;52.094;4.408;2022-10-03T22:05:57;12.10;99.90
38398;DHT22;24179;52.094;4.408;2022-10-03T22:09:00;12.10;99.90
38398;DHT22;24179;52.094;4.408;2022-10-03T22:12:02;12.10;99.90
38398;DHT22;24179;52.094;4.408;2022-10-03T22:15:05;12.10;99.90
38398;DHT22;24179;52.094;4.408;2022-10-03T22:18:09;12.10;99.90
38398;DHT22;24179;52.094;4.408;2022-10-03T22:21:30;12.10;99.90
38398;DHT22;24179;52.094;4.408;2022-10-03T22:27:39;12.20;99.90
38398;DHT22;24179;52.094;4.408;2022-10-03T22:30:46;12.20;99.90
38398;DHT22;24179;52.094;4.408;2022-10-03T22:33:58;12.20;99.90
38398;DHT22;24179;52.094;4.408;2022-10-03T22:37:03;12.30;99.90
38398;DHT22;24179;52.094;4.408;2022-10-03T22:40:04;12.40;99.90
38398;DHT22;24179;52.094;4.408;2022-10-03T22:43:04;12.40;99.90
38398;DHT22;24179;52.094;4.408;2022-10-03T22:46:06;12.40;99.90
38398;DHT22;24179;52.094;4.408;2022-10-03T22:49:09;12.40;99.90
38398;DHT22;24179;52.094;4.408;2022-10-03T22:52:16;12.40;99.90
38398;DHT22;24179;52.094;4.408;2022-10-03T22:55:18;12.40;99.90
38398;DHT22;24179;52.094;4.408;2022-10-03T22:58:20;12.30;99.90
38398;DHT22;24179;52.094;4.408;2022-10-03T23:01:21;12.30;99.90
38398;DHT22;24179;52.094;4.408;2022-10-03T23:04:32;12.20;99.90
38398;DHT22;24179;52.094;4.408;2022-10-03T23:07:40;12.20;99.90
38398;DHT22;24179;52.094;4.408;2022-10-03T23:10:57;12.20;99.90
38398;DHT22;24179;52.094;4.408;2022-10-03T23:14:03;12.10;99.90
38398;DHT22;24179;52.094;4.408;2022-10-03T23:23:33;12.10;99.90
38398;DHT22;24179;52.094;4.408;2022-10-03T23:33:15;11.80;99.90
38398;DHT22;24179;52.094;4.408;2022-10-03T23:36:17;11.80;99.90
38398;DHT22;24179;52.094;4.408;2022-10-03T23:39:31;11.80;99.90
38398;DHT22;24179;52.094;4.408;2022-10-03T23:45:32;11.80;99.90
38398;DHT22;24179;52.094;4.408;2022-10-03T23:48:38;11.80;99.90
38398;DHT22;24179;52.094;4.408;2022-10-03T23:51:40;11.90;99.90
38398;DHT22;24179;52.094;4.408;2022-10-03T23:54:41;11.90;99.90
38398;DHT22;24179;52.094;4.408;2022-10-03T23:57:43;11.90;99.90
